Argentona, Spain
Current Conditions -  °F | °C
As of 1:00 PM on Thursday 27 Nov 2014 (Local Time) from LELL Reporting Station
Scattered Clouds Scattered Clouds  
Wind Chill: 59°   Ceiling: Unl
Heat Index: 59°   Visibility: 4mi
Dew Point: 55°   Wind: 2mph
Humidity: 88%   Direction: NA
Pressure: 29.71"   Gusts: NA
Location:  41.55°N, 2.4°E
Report Text: LELL 271200Z VRB02KT 6000 FEW010 SCT025 15/13 Q1006
Loading
Personal Weather Stations






























Interactive Weather Map New forecast layout! Learn more

10-Day Weather Forecast

Advertisements
Track Severe Weather on mobile